Gulf Venture — WDI8681 — position and weather

sailwx.info

Track history (hours):
 
Tides and Currents Weather Stations Pressure Air Temp Water Temp Dewpoint Dewpoint Depression Visibility Wind Speed Wind Dir Waves Ship Positions

Gulf Venture

Owner: Harley Marine Services, Inc, Seattle, WA. More information available from US FCC via Universal Licensing System and Coast Guard Vessel Documentation Center.

Last reported at 2017-Nov-19 18:30 UTC. Time now 2017-Nov-21 06:27 UTC.
Position N 38°03' W 076°14'.

Length 145 m.

Type: Towing. MMSI: 367741080.

Date/timePositionNaut miles runAvg speedWind from/ knotsBaromVisibWave heightAir tempDewpointWater temp
2017-Nov-19 18:30N 38°03' W 076°14'4 7.1
2017-Nov-19 17:57N 38°07' W 076°15'3 6.3
2017-Nov-19 17:30N 38°10' W 076°15'41 6.9
2017-Nov-19 11:33N 38°50' W 076°25'110.8
2017-Nov-19 11:30N 38°50' W 076°25'510.4
2017-Nov-19 11:00N 38°55' W 076°23'2 4.5
2017-Nov-19 10:30N 38°58' W 076°23'3 6.8
2017-Nov-19 10:00N 39°01' W 076°22'4 8.2
2017-Nov-19 09:30N 39°04' W 076°19'4 7.9
2017-Nov-19 09:01N 39°08' W 076°19'5 9.6
2017-Nov-19 08:31N 39°12' W 076°16'510.3
2017-Nov-19 08:01N 39°17' W 076°14'510.3
2017-Nov-19 07:31N 39°21' W 076°10'510.9
2017-Nov-19 07:00N 39°24' W 076°04'510.5
2017-Nov-19 06:30N 39°27' W 075°59'510.1
2017-Nov-19 06:00N 39°31' W 075°54'4 8.2
2017-Nov-19 05:30N 39°32' W 075°49'5 9.1
2017-Nov-19 05:01N 39°33' W 075°43'4 8.7
2017-Nov-19 04:31N 39°33' W 075°37'3 6.8
2017-Nov-19 04:00N 39°35' W 075°33'4 7.1
2017-Nov-19 03:30N 39°38' W 075°34'4 7.6
2017-Nov-19 03:00N 39°41' W 075°31'4 7.6
2017-Nov-19 02:30N 39°45' W 075°30'4 7.3
2017-Nov-19 02:01N 39°47' W 075°27'2 4.6
2017-Nov-19 01:28N 39°49' W 075°24'0 0.0
2017-Nov-19 00:58N 39°49' W 075°24'0 0.0
2017-Nov-19 00:28N 39°49' W 075°24'0 0.0
2017-Nov-18 23:58N 39°49' W 075°24'0 0.0
2017-Nov-18 23:28N 39°49' W 075°24'0 0.0
2017-Nov-18 22:58N 39°49' W 075°24'0 0.0
2017-Nov-18 22:28N 39°49' W 075°24'0 0.0
2017-Nov-18 21:58N 39°49' W 075°24'0 0.0
2017-Nov-18 21:28N 39°49' W 075°24'0 0.0
2017-Nov-18 20:58N 39°49' W 075°24'0 0.0
2017-Nov-18 20:28N 39°49' W 075°24'0 0.0
2017-Nov-18 19:58N 39°49' W 075°24'0 0.0
2017-Nov-18 19:28N 39°49' W 075°24'0 0.0
2017-Nov-18 18:58N 39°49' W 075°24'0 0.0
2017-Nov-18 18:28N 39°49' W 075°24'0 0.0
2017-Nov-18 17:58N 39°49' W 075°24'0 0.0
2017-Nov-18 17:28N 39°49' W 075°24'0 0.0
2017-Nov-18 16:58N 39°49' W 075°24'0 0.0
2017-Nov-18 16:28N 39°49' W 075°24'0 0.0
2017-Nov-18 15:58N 39°49' W 075°24'0 0.0
2017-Nov-18 15:28N 39°49' W 075°24'0 0.0
2017-Nov-18 14:58N 39°49' W 075°24'0 0.0
2017-Nov-18 14:28N 39°49' W 075°24'0 0.0
2017-Nov-18 13:58N 39°49' W 075°24'0 0.0
2017-Nov-18 13:28N 39°49' W 075°24'0 0.0
2017-Nov-18 12:58N 39°49' W 075°24'0 0.0
2017-Nov-18 12:28N 39°49' W 075°24'0 0.0
2017-Nov-18 11:58N 39°49' W 075°24'0 0.0
2017-Nov-18 11:28N 39°49' W 075°24'0 0.0
2017-Nov-18 10:58N 39°49' W 075°24'0 0.0
2017-Nov-18 10:28N 39°49' W 075°24'0 0.0
2017-Nov-18 09:58N 39°49' W 075°24'0 0.0
2017-Nov-18 09:25N 39°49' W 075°24'0 0.0
2017-Nov-18 08:58N 39°49' W 075°24'0 0.0
2017-Nov-18 08:28N 39°49' W 075°24'0 0.0
2017-Nov-18 07:58N 39°49' W 075°24'0 0.0
2017-Nov-18 07:28N 39°49' W 075°24'0 0.0
2017-Nov-18 06:58N 39°49' W 075°24'0 0.0
2017-Nov-18 06:28N 39°49' W 075°24'0 0.0
2017-Nov-18 06:01N 39°49' W 075°24'2 4.6
2017-Nov-18 05:31N 39°50' W 075°22'4 7.9
2017-Nov-18 05:01N 39°51' W 075°17'4 8.1
2017-Nov-18 04:30N 39°53' W 075°12'1 1.7
2017-Nov-18 04:01N 39°54' W 075°12'0 0.0
2017-Nov-18 03:30N 39°54' W 075°12'0 0.0
2017-Nov-18 03:00N 39°54' W 075°12'0 0.2
2017-Nov-18 02:30N 39°53' W 075°12'0 0.0
2017-Nov-18 02:00N 39°53' W 075°12'0 0.0
2017-Nov-18 01:30N 39°53' W 075°12'0 0.0
2017-Nov-18 01:00N 39°53' W 075°12'0 0.0
2017-Nov-18 00:30N 39°53' W 075°12'1 1.7
2017-Nov-18 00:00N 39°53' W 075°12'4 8.9
2017-Nov-17 23:31N 39°51' W 075°17'4 8.2
2017-Nov-17 23:01N 39°50' W 075°22'2 3.2
2017-Nov-17 22:29N 39°49' W 075°24'0 0.0
2017-Nov-17 21:59N 39°49' W 075°24'0 0.0
2017-Nov-17 21:29N 39°49' W 075°24'0 0.0
2017-Nov-17 20:59N 39°49' W 075°24'0 0.0
2017-Nov-17 20:29N 39°49' W 075°24'0 0.0
2017-Nov-17 19:59N 39°49' W 075°24'0 0.0
2017-Nov-17 19:29N 39°49' W 075°24'0 0.0
2017-Nov-17 18:59N 39°49' W 075°24'0 0.0
2017-Nov-17 18:29N 39°49' W 075°24'1 2.3
2017-Nov-17 18:00N 39°48' W 075°25'0 0.4
2017-Nov-17 17:30N 39°48' W 075°25'2 3.7
2017-Nov-17 17:00N 39°47' W 075°27'3 6.0
2017-Nov-17 16:31N 39°45' W 075°30'2 4.1
2017-Nov-17 16:00N 39°43' W 075°31'0 0.0
2017-Nov-17 15:30N 39°43' W 075°31'0 0.0
2017-Nov-17 15:00N 39°43' W 075°31'0 0.0
2017-Nov-17 14:30N 39°43' W 075°31'0 0.0
2017-Nov-17 14:00N 39°43' W 075°31'0 0.0
2017-Nov-17 13:30N 39°43' W 075°31'0 0.0
2017-Nov-17 13:00N 39°43' W 075°31'0 0.0
2017-Nov-17 12:30N 39°43' W 075°31'0 0.0
2017-Nov-17 12:00N 39°43' W 075°31'0 0.0
2017-Nov-17 11:30N 39°43' W 075°31'0 0.0
2017-Nov-17 11:00N 39°43' W 075°31'0 0.0
2017-Nov-17 10:30N 39°43' W 075°31'0 0.0
2017-Nov-17 10:00N 39°43' W 075°31'0 0.0
2017-Nov-17 09:30N 39°43' W 075°31'0 0.0
2017-Nov-17 09:00N 39°43' W 075°31'0 0.0
2017-Nov-17 08:30N 39°43' W 075°31'0 0.0
2017-Nov-17 08:00N 39°43' W 075°31'0 0.0
2017-Nov-17 07:30N 39°43' W 075°31'0 0.0
2017-Nov-17 07:00N 39°43' W 075°31'0 0.0
2017-Nov-17 06:30N 39°43' W 075°31'0 0.0
2017-Nov-17 06:00N 39°43' W 075°31'0 0.0
2017-Nov-17 05:30N 39°43' W 075°31'0 0.0
2017-Nov-17 05:00N 39°43' W 075°31'0 0.0
2017-Nov-17 04:30N 39°43' W 075°31'0 0.0
2017-Nov-17 04:00N 39°43' W 075°31'0 0.0
2017-Nov-17 03:30N 39°43' W 075°31'0 0.0
2017-Nov-17 03:00N 39°43' W 075°31'0 0.0
2017-Nov-17 02:30N 39°43' W 075°31'0 0.0
2017-Nov-17 02:00N 39°43' W 075°31'0 0.0
2017-Nov-17 01:30N 39°43' W 075°31'0 0.0
2017-Nov-17 01:00N 39°43' W 075°31'0 0.0
2017-Nov-17 00:30N 39°43' W 075°31'0 0.0
2017-Nov-17 00:00N 39°43' W 075°31'0 0.0
2017-Nov-16 23:30N 39°43' W 075°31'0 0.0
2017-Nov-16 23:00N 39°43' W 075°31'0 0.0
2017-Nov-16 22:30N 39°43' W 075°31'0 0.0
2017-Nov-16 22:00N 39°43' W 075°31'0 0.0
2017-Nov-16 21:30N 39°43' W 075°31'0 0.0
2017-Nov-16 21:00N 39°43' W 075°31'0 0.0
2017-Nov-16 20:30N 39°43' W 075°31'0 0.0
2017-Nov-16 20:00N 39°43' W 075°31'0 0.0
2017-Nov-16 19:30N 39°43' W 075°31'0 0.0
2017-Nov-16 19:00N 39°43' W 075°31'0 0.0
2017-Nov-16 18:30N 39°43' W 075°31'0 0.0
2017-Nov-16 18:00N 39°43' W 075°31'0 0.0
2017-Nov-16 17:30N 39°43' W 075°31'0 0.0
2017-Nov-16 17:00N 39°43' W 075°31'0 0.0
2017-Nov-16 16:30N 39°43' W 075°31'0 0.0
2017-Nov-16 16:00N 39°43' W 075°31'0 0.0
2017-Nov-16 15:30N 39°43' W 075°31'0 0.0
2017-Nov-16 15:00N 39°43' W 075°31'0 0.0
2017-Nov-16 14:30N 39°43' W 075°31'0 0.0
2017-Nov-16 14:00N 39°43' W 075°31'0 0.0
2017-Nov-16 13:30N 39°43' W 075°31'0 0.0
2017-Nov-16 13:00N 39°43' W 075°31'0 0.0
2017-Nov-16 12:30N 39°43' W 075°31'0 0.0
2017-Nov-16 12:00N 39°43' W 075°31'0 0.0
2017-Nov-16 11:30N 39°43' W 075°31'0 0.0
2017-Nov-16 11:00N 39°43' W 075°31'0 0.0
2017-Nov-16 10:30N 39°43' W 075°31'0 0.0
2017-Nov-16 10:00N 39°43' W 075°31'0 0.0
2017-Nov-16 09:30N 39°43' W 075°31'0 0.0
2017-Nov-16 09:00N 39°43' W 075°31'0 0.0
2017-Nov-16 08:30N 39°43' W 075°31'0 0.0
2017-Nov-16 08:00N 39°43' W 075°31'0 0.0
2017-Nov-16 07:30N 39°43' W 075°31'0 0.0
2017-Nov-16 07:00N 39°43' W 075°31'0 0.0
2017-Nov-16 06:30N 39°43' W 075°31'0 0.0
2017-Nov-16 06:00N 39°43' W 075°31'0 0.0
2017-Nov-16 05:30N 39°43' W 075°31'0 0.0
2017-Nov-16 05:00N 39°43' W 075°31'0 0.0
2017-Nov-16 04:30N 39°43' W 075°31'0 0.0
2017-Nov-16 04:00N 39°43' W 075°31'0 0.0
2017-Nov-16 03:30N 39°43' W 075°31'0 0.0
2017-Nov-16 03:00N 39°43' W 075°31'0 0.0
2017-Nov-16 02:30N 39°43' W 075°31'0 0.0
2017-Nov-16 02:00N 39°43' W 075°31'0 0.0
2017-Nov-16 01:30N 39°43' W 075°31'0 0.0
2017-Nov-16 01:00N 39°43' W 075°31'0 0.0
2017-Nov-16 00:30N 39°43' W 075°31'0 0.0
2017-Nov-16 00:00N 39°43' W 075°31'0 0.0
2017-Nov-15 23:30N 39°43' W 075°31'0 0.0
2017-Nov-15 23:00N 39°43' W 075°31'0 0.0
2017-Nov-15 22:30N 39°43' W 075°31'0 0.0
2017-Nov-15 22:00N 39°43' W 075°31'0 0.0
2017-Nov-15 21:30N 39°43' W 075°31'0 0.0
2017-Nov-15 21:00N 39°43' W 075°31'0 0.0
2017-Nov-15 20:30N 39°43' W 075°31'0 0.0
2017-Nov-15 20:00N 39°43' W 075°31'0 0.0
2017-Nov-15 19:30N 39°43' W 075°31'0 0.0
2017-Nov-15 19:00N 39°43' W 075°31'0 0.0
2017-Nov-15 18:30N 39°43' W 075°31'0 0.0
2017-Nov-15 18:00N 39°43' W 075°31'0 0.0
2017-Nov-15 17:30N 39°43' W 075°31'0 0.0
2017-Nov-15 16:57N 39°43' W 075°31'0 0.0
2017-Nov-15 16:30N 39°43' W 075°31'0 0.0
2017-Nov-15 16:00N 39°43' W 075°31'0 0.0
2017-Nov-15 15:30N 39°43' W 075°31'0 0.0
2017-Nov-15 15:00N 39°43' W 075°31'0 0.0
2017-Nov-15 14:30N 39°43' W 075°31'0 0.0
2017-Nov-15 14:00N 39°43' W 075°31'0 0.0
2017-Nov-15 13:30N 39°43' W 075°31'0 0.0
2017-Nov-15 13:00N 39°43' W 075°31'0 0.0
2017-Nov-15 12:30N 39°43' W 075°31'1 1.4
2017-Nov-15 12:00N 39°43' W 075°30'0 0.1
2017-Nov-15 11:30N 39°43' W 075°30'0 0.1
2017-Nov-15 11:00N 39°43' W 075°30'0 0.2
2017-Nov-15 10:30N 39°43' W 075°30'0 0.1
2017-Nov-15 10:00N 39°43' W 075°30'0 0.0
2017-Nov-15 09:30N 39°43' W 075°30'0 0.0
2017-Nov-15 09:00N 39°43' W 075°30'0 0.0
2017-Nov-15 08:30N 39°43' W 075°30'0 0.0
2017-Nov-15 08:00N 39°43' W 075°30'0 0.0
2017-Nov-15 07:30N 39°43' W 075°30'0 0.0
2017-Nov-15 07:00N 39°43' W 075°30'0 0.0
2017-Nov-15 06:30N 39°43' W 075°30'0 0.0
2017-Nov-15 06:00N 39°43' W 075°30'0 0.0
2017-Nov-15 05:30N 39°43' W 075°30'0 0.0
2017-Nov-15 05:00N 39°43' W 075°30'0 0.0
2017-Nov-15 04:30N 39°43' W 075°30'0 0.0
2017-Nov-15 04:00N 39°43' W 075°30'0 0.0
2017-Nov-15 03:30N 39°43' W 075°30'0 0.2
2017-Nov-15 03:00N 39°43' W 075°30'0 0.1
2017-Nov-15 02:30N 39°43' W 075°30'0 0.1
2017-Nov-15 02:00N 39°43' W 075°30'0 0.0
2017-Nov-15 01:30N 39°43' W 075°30'0 0.0
2017-Nov-15 01:00N 39°43' W 075°30'0 0.1
2017-Nov-15 00:30N 39°43' W 075°30'0 0.0
2017-Nov-15 00:00N 39°43' W 075°30'0 0.1
2017-Nov-14 23:30N 39°43' W 075°30'0 0.0
2017-Nov-14 23:00N 39°43' W 075°30'0 0.1
2017-Nov-14 22:30N 39°43' W 075°30'0 0.1
2017-Nov-14 22:00N 39°43' W 075°30'0 0.1
2017-Nov-14 21:30N 39°43' W 075°30'0 0.1
2017-Nov-14 21:00N 39°43' W 075°30'0 0.0
2017-Nov-14 20:30N 39°43' W 075°30'0 0.1
2017-Nov-14 20:00N 39°43' W 075°30'0 0.0
2017-Nov-14 19:30N 39°43' W 075°30'0 0.0
2017-Nov-14 19:00N 39°43' W 075°30'0 0.0
2017-Nov-14 18:30N 39°43' W 075°30'0 0.0
2017-Nov-14 18:00N 39°43' W 075°30'0 0.0
2017-Nov-14 17:30N 39°43' W 075°30'0 0.1
2017-Nov-14 17:00N 39°43' W 075°30'0 0.0
2017-Nov-14 16:30N 39°43' W 075°30'0 0.0
2017-Nov-14 16:00N 39°43' W 075°30'0 0.0
2017-Nov-14 15:30N 39°43' W 075°30'0 0.0
2017-Nov-14 15:00N 39°43' W 075°30'0 0.3
2017-Nov-14 14:30N 39°43' W 075°30'0 0.2
2017-Nov-14 14:00N 39°43' W 075°30'0 0.0
2017-Nov-14 13:27N 39°43' W 075°30'0 0.0
2017-Nov-14 13:00N 39°43' W 075°30'0 0.0
2017-Nov-14 12:30N 39°43' W 075°30'0 0.0
2017-Nov-14 12:00N 39°43' W 075°30'0 0.0
2017-Nov-14 11:30N 39°43' W 075°30'0 0.1
2017-Nov-14 11:00N 39°43' W 075°30'0 0.1
2017-Nov-14 10:30N 39°43' W 075°30'0 0.2
2017-Nov-14 10:00N 39°43' W 075°30'0 0.1
2017-Nov-14 09:30N 39°43' W 075°30'0 0.0
2017-Nov-14 09:00N 39°43' W 075°30'0 0.0
2017-Nov-14 08:30N 39°43' W 075°30'0 0.0
2017-Nov-14 08:00N 39°43' W 075°30'0 0.0
2017-Nov-14 07:30N 39°43' W 075°30'0 0.0
2017-Nov-14 07:00N 39°43' W 075°30'0 0.0
2017-Nov-14 06:30N 39°43' W 075°30'0 0.0
2017-Nov-14 06:00N 39°43' W 075°30'0 0.0
2017-Nov-14 05:30N 39°43' W 075°30'0 0.0
2017-Nov-14 05:00N 39°43' W 075°30'0 0.0
2017-Nov-14 04:30N 39°43' W 075°30'0 0.1
2017-Nov-14 04:00N 39°43' W 075°30'0 0.0
2017-Nov-14 03:30N 39°43' W 075°30'0 0.1
2017-Nov-14 03:00N 39°43' W 075°30'0 0.3
2017-Nov-14 02:30N 39°43' W 075°30'0 0.1
2017-Nov-14 02:00N 39°43' W 075°30'0 0.0
2017-Nov-14 01:30N 39°43' W 075°30'0 0.0
2017-Nov-14 01:00N 39°43' W 075°30'0 0.0
2017-Nov-14 00:30N 39°43' W 075°30'0 0.0
2017-Nov-14 00:00N 39°43' W 075°30'0 0.0
2017-Nov-13 23:30N 39°43' W 075°30'0 0.0
2017-Nov-13 23:00N 39°43' W 075°30'0 0.0
2017-Nov-13 22:30N 39°43' W 075°30'0 0.0
2017-Nov-13 22:00N 39°43' W 075°30'63 3.2
2017-Nov-13 02:00N 39°29' W 074°09'510.1
2017-Nov-13 01:30N 39°34' W 074°07'510.1
2017-Nov-13 01:00N 39°38' W 074°04'510.1
2017-Nov-13 00:30N 39°43' W 074°01'510.0
2017-Nov-13 00:00N 39°48' W 073°58'510.3
2017-Nov-12 23:30N 39°53' W 073°58'610.0
2017-Nov-12 22:57N 39°58' W 073°57'20 9.8
2017-Nov-12 20:55N 40°18' W 073°54'4 9.7
2017-Nov-12 20:28N 40°22' W 073°54'4 9.6
2017-Nov-12 20:00N 40°27' W 073°54'4 7.6
2017-Nov-12 19:30N 40°30' W 073°56'4 8.0
2017-Nov-12 19:00N 40°32' W 074°01'4 7.2
2017-Nov-12 18:30N 40°35' W 074°02'3 6.9
2017-Nov-12 18:00N 40°39' W 074°02'2 4.0
2017-Nov-12 17:30N 40°41' W 074°01'4 7.1
2017-Nov-12 17:00N 40°43' W 073°58'4 8.2
2017-Nov-12 16:31N 40°47' W 073°56'3 6.5
2017-Nov-12 16:00N 40°48' W 073°52'4 7.3
2017-Nov-12 15:30N 40°49' W 073°47'5 9.7
2017-Nov-12 15:00N 40°53' W 073°43'41 7.7
2017-Nov-12 09:43N 41°11' W 072°55'37 1.6
2017-Nov-11 10:25N 40°55' W 073°39'410.7
2017-Nov-11 10:00N 40°53' W 073°44'510.0
2017-Nov-11 09:30N 40°48' W 073°47'5 9.8
2017-Nov-11 09:00N 40°48' W 073°54'3 6.5
2017-Nov-11 08:30N 40°46' W 073°57'3 6.1
2017-Nov-11 08:00N 40°43' W 073°58'4 7.2
2017-Nov-11 07:30N 40°41' W 074°02'3 6.3
2017-Nov-11 07:00N 40°38' W 074°03'4 8.1
2017-Nov-11 06:30N 40°34' W 074°02'4 7.6
2017-Nov-11 05:59N 40°31' W 073°59'4 8.4
2017-Nov-11 05:29N 40°29' W 073°54'3 5.9
2017-Nov-11 04:59N 40°26' W 073°54'3 5.3
2017-Nov-11 04:29N 40°23' W 073°54'3 5.4
2017-Nov-11 04:00N 40°21' W 073°54'24 5.4
2017-Nov-10 23:33N 39°57' W 073°57'1 7.4
2017-Nov-10 23:26N 39°56' W 073°57'3 7.4
2017-Nov-10 23:00N 39°53' W 073°57'4 7.3
2017-Nov-10 22:29N 39°49' W 073°58'3 7.3
2017-Nov-10 22:00N 39°46' W 073°59'4 7.6
2017-Nov-10 21:30N 39°42' W 074°00'4 8.2
2017-Nov-10 21:00N 39°38' W 074°03'4 8.3
2017-Nov-10 20:30N 39°35' W 074°06'63 8.3
2017-Nov-10 12:56N 38°50' W 075°03'4 9.6
2017-Nov-10 12:30N 38°54' W 075°05'5 9.0
2017-Nov-10 12:00N 38°58' W 075°07'5 9.5
2017-Nov-10 11:30N 39°03' W 075°10'5 9.9
2017-Nov-10 11:00N 39°07' W 075°13'510.1
2017-Nov-10 10:30N 39°11' W 075°16'611.4
2017-Nov-10 10:00N 39°16' W 075°20'611.4
2017-Nov-10 09:30N 39°20' W 075°25'510.8
2017-Nov-10 09:00N 39°24' W 075°30'5 9.7
2017-Nov-10 08:30N 39°28' W 075°34'5 9.3
2017-Nov-10 08:01N 39°33' W 075°33'4 8.7
2017-Nov-10 07:30N 39°37' W 075°35'4 8.5
2017-Nov-10 07:01N 39°40' W 075°32'5 9.1
2017-Nov-10 06:31N 39°45' W 075°30'4 8.3
2017-Nov-10 06:00N 39°48' W 075°26'2 3.8
2017-Nov-10 05:31N 39°49' W 075°24'0 0.0
2017-Nov-10 05:00N 39°49' W 075°24'0 0.0
2017-Nov-10 04:31N 39°49' W 075°24'0 0.0
2017-Nov-10 03:59N 39°49' W 075°24'0 0.0
2017-Nov-10 03:29N 39°49' W 075°24'0 0.0
2017-Nov-10 02:59N 39°49' W 075°24'0 0.0
2017-Nov-10 02:29N 39°49' W 075°24'0 0.0
2017-Nov-10 01:59N 39°49' W 075°24'0 0.0
2017-Nov-10 01:29N 39°49' W 075°24'0 0.0
2017-Nov-10 00:59N 39°49' W 075°24'0 0.0
2017-Nov-10 00:29N 39°49' W 075°24'0 0.0
2017-Nov-09 23:59N 39°49' W 075°24'0 0.0
2017-Nov-09 23:29N 39°49' W 075°24'0 0.0
2017-Nov-09 22:59N 39°49' W 075°24'0 0.0
2017-Nov-09 22:29N 39°49' W 075°24'0 0.0
2017-Nov-09 21:59N 39°49' W 075°24'0 0.0
2017-Nov-09 21:29N 39°49' W 075°24'0 0.0
2017-Nov-09 20:59N 39°49' W 075°24'0 0.0
2017-Nov-09 20:29N 39°49' W 075°24'0 0.0
2017-Nov-09 19:59N 39°49' W 075°24'0 0.0
2017-Nov-09 19:29N 39°49' W 075°24'0 0.0
2017-Nov-09 18:59N 39°49' W 075°24'  
Track history (hours):
 
Tides and Currents Weather Stations Pressure Air Temp Water Temp Dewpoint Dewpoint Depression Visibility Wind Speed Wind Dir Waves Ship Positions

Gulf Venture

Owner: Harley Marine Services, Inc, Seattle, WA. More information available from US FCC via Universal Licensing System and Coast Guard Vessel Documentation Center.

Last reported at 2017-Nov-19 18:30 UTC. Time now 2017-Nov-21 06:27 UTC.
Position N 38°03' W 076°14'.

Length 145 m.

Type: Towing. MMSI: 367741080.

Date/timePositionNaut miles runAvg speedWind from/ knotsBaromVisibWave heightAir tempDewpointWater temp
2017-Nov-19 18:30N 38°03' W 076°14'4 7.1
2017-Nov-19 17:57N 38°07' W 076°15'3 6.3
2017-Nov-19 17:30N 38°10' W 076°15'41 6.9
2017-Nov-19 11:33N 38°50' W 076°25'110.8
2017-Nov-19 11:30N 38°50' W 076°25'510.4
2017-Nov-19 11:00N 38°55' W 076°23'2 4.5
2017-Nov-19 10:30N 38°58' W 076°23'3 6.8
2017-Nov-19 10:00N 39°01' W 076°22'4 8.2
2017-Nov-19 09:30N 39°04' W 076°19'4 7.9
2017-Nov-19 09:01N 39°08' W 076°19'5 9.6
2017-Nov-19 08:31N 39°12' W 076°16'510.3
2017-Nov-19 08:01N 39°17' W 076°14'510.3
2017-Nov-19 07:31N 39°21' W 076°10'510.9
2017-Nov-19 07:00N 39°24' W 076°04'510.5
2017-Nov-19 06:30N 39°27' W 075°59'510.1
2017-Nov-19 06:00N 39°31' W 075°54'4 8.2
2017-Nov-19 05:30N 39°32' W 075°49'5 9.1
2017-Nov-19 05:01N 39°33' W 075°43'4 8.7
2017-Nov-19 04:31N 39°33' W 075°37'3 6.8
2017-Nov-19 04:00N 39°35' W 075°33'4 7.1
2017-Nov-19 03:30N 39°38' W 075°34'4 7.6
2017-Nov-19 03:00N 39°41' W 075°31'4 7.6
2017-Nov-19 02:30N 39°45' W 075°30'4 7.3
2017-Nov-19 02:01N 39°47' W 075°27'2 4.6
2017-Nov-19 01:28N 39°49' W 075°24'0 0.0
2017-Nov-19 00:58N 39°49' W 075°24'0 0.0
2017-Nov-19 00:28N 39°49' W 075°24'0 0.0
2017-Nov-18 23:58N 39°49' W 075°24'0 0.0
2017-Nov-18 23:28N 39°49' W 075°24'0 0.0
2017-Nov-18 22:58N 39°49' W 075°24'0 0.0
2017-Nov-18 22:28N 39°49' W 075°24'0 0.0
2017-Nov-18 21:58N 39°49' W 075°24'0 0.0
2017-Nov-18 21:28N 39°49' W 075°24'0 0.0
2017-Nov-18 20:58N 39°49' W 075°24'0 0.0
2017-Nov-18 20:28N 39°49' W 075°24'0 0.0
2017-Nov-18 19:58N 39°49' W 075°24'0 0.0
2017-Nov-18 19:28N 39°49' W 075°24'0 0.0
2017-Nov-18 18:58N 39°49' W 075°24'0 0.0
2017-Nov-18 18:28N 39°49' W 075°24'0 0.0
2017-Nov-18 17:58N 39°49' W 075°24'0 0.0
2017-Nov-18 17:28N 39°49' W 075°24'0 0.0
2017-Nov-18 16:58N 39°49' W 075°24'0 0.0
2017-Nov-18 16:28N 39°49' W 075°24'0 0.0
2017-Nov-18 15:58N 39°49' W 075°24'0 0.0
2017-Nov-18 15:28N 39°49' W 075°24'0 0.0
2017-Nov-18 14:58N 39°49' W 075°24'0 0.0
2017-Nov-18 14:28N 39°49' W 075°24'0 0.0
2017-Nov-18 13:58N 39°49' W 075°24'0 0.0
2017-Nov-18 13:28N 39°49' W 075°24'0 0.0
2017-Nov-18 12:58N 39°49' W 075°24'0 0.0
2017-Nov-18 12:28N 39°49' W 075°24'0 0.0
2017-Nov-18 11:58N 39°49' W 075°24'0 0.0
2017-Nov-18 11:28N 39°49' W 075°24'0 0.0
2017-Nov-18 10:58N 39°49' W 075°24'0 0.0
2017-Nov-18 10:28N 39°49' W 075°24'0 0.0
2017-Nov-18 09:58N 39°49' W 075°24'0 0.0
2017-Nov-18 09:25N 39°49' W 075°24'0 0.0
2017-Nov-18 08:58N 39°49' W 075°24'0 0.0
2017-Nov-18 08:28N 39°49' W 075°24'0 0.0
2017-Nov-18 07:58N 39°49' W 075°24'0 0.0
2017-Nov-18 07:28N 39°49' W 075°24'0 0.0
2017-Nov-18 06:58N 39°49' W 075°24'0 0.0
2017-Nov-18 06:28N 39°49' W 075°24'0 0.0
2017-Nov-18 06:01N 39°49' W 075°24'2 4.6
2017-Nov-18 05:31N 39°50' W 075°22'4 7.9
2017-Nov-18 05:01N 39°51' W 075°17'4 8.1
2017-Nov-18 04:30N 39°53' W 075°12'1 1.7
2017-Nov-18 04:01N 39°54' W 075°12'0 0.0
2017-Nov-18 03:30N 39°54' W 075°12'0 0.0
2017-Nov-18 03:00N 39°54' W 075°12'0 0.2
2017-Nov-18 02:30N 39°53' W 075°12'0 0.0
2017-Nov-18 02:00N 39°53' W 075°12'0 0.0
2017-Nov-18 01:30N 39°53' W 075°12'0 0.0
2017-Nov-18 01:00N 39°53' W 075°12'0 0.0
2017-Nov-18 00:30N 39°53' W 075°12'1 1.7
2017-Nov-18 00:00N 39°53' W 075°12'4 8.9
2017-Nov-17 23:31N 39°51' W 075°17'4 8.2
2017-Nov-17 23:01N 39°50' W 075°22'2 3.2
2017-Nov-17 22:29N 39°49' W 075°24'0 0.0
2017-Nov-17 21:59N 39°49' W 075°24'0 0.0
2017-Nov-17 21:29N 39°49' W 075°24'0 0.0
2017-Nov-17 20:59N 39°49' W 075°24'0 0.0
2017-Nov-17 20:29N 39°49' W 075°24'0 0.0
2017-Nov-17 19:59N 39°49' W 075°24'0 0.0
2017-Nov-17 19:29N 39°49' W 075°24'0 0.0
2017-Nov-17 18:59N 39°49' W 075°24'0 0.0
2017-Nov-17 18:29N 39°49' W 075°24'1 2.3
2017-Nov-17 18:00N 39°48' W 075°25'0 0.4
2017-Nov-17 17:30N 39°48' W 075°25'2 3.7
2017-Nov-17 17:00N 39°47' W 075°27'3 6.0
2017-Nov-17 16:31N 39°45' W 075°30'2 4.1
2017-Nov-17 16:00N 39°43' W 075°31'0 0.0
2017-Nov-17 15:30N 39°43' W 075°31'0 0.0
2017-Nov-17 15:00N 39°43' W 075°31'0 0.0
2017-Nov-17 14:30N 39°43' W 075°31'0 0.0
2017-Nov-17 14:00N 39°43' W 075°31'0 0.0
2017-Nov-17 13:30N 39°43' W 075°31'0 0.0
2017-Nov-17 13:00N 39°43' W 075°31'0 0.0
2017-Nov-17 12:30N 39°43' W 075°31'0 0.0
2017-Nov-17 12:00N 39°43' W 075°31'0 0.0
2017-Nov-17 11:30N 39°43' W 075°31'0 0.0
2017-Nov-17 11:00N 39°43' W 075°31'0 0.0
2017-Nov-17 10:30N 39°43' W 075°31'0 0.0
2017-Nov-17 10:00N 39°43' W 075°31'0 0.0
2017-Nov-17 09:30N 39°43' W 075°31'0 0.0
2017-Nov-17 09:00N 39°43' W 075°31'0 0.0
2017-Nov-17 08:30N 39°43' W 075°31'0 0.0
2017-Nov-17 08:00N 39°43' W 075°31'0 0.0
2017-Nov-17 07:30N 39°43' W 075°31'0 0.0
2017-Nov-17 07:00N 39°43' W 075°31'0 0.0
2017-Nov-17 06:30N 39°43' W 075°31'0 0.0
2017-Nov-17 06:00N 39°43' W 075°31'0 0.0
2017-Nov-17 05:30N 39°43' W 075°31'0 0.0
2017-Nov-17 05:00N 39°43' W 075°31'0 0.0
2017-Nov-17 04:30N 39°43' W 075°31'0 0.0
2017-Nov-17 04:00N 39°43' W 075°31'0 0.0
2017-Nov-17 03:30N 39°43' W 075°31'0 0.0
2017-Nov-17 03:00N 39°43' W 075°31'0 0.0
2017-Nov-17 02:30N 39°43' W 075°31'0 0.0
2017-Nov-17 02:00N 39°43' W 075°31'0 0.0
2017-Nov-17 01:30N 39°43' W 075°31'0 0.0
2017-Nov-17 01:00N 39°43' W 075°31'0 0.0
2017-Nov-17 00:30N 39°43' W 075°31'0 0.0
2017-Nov-17 00:00N 39°43' W 075°31'0 0.0
2017-Nov-16 23:30N 39°43' W 075°31'0 0.0
2017-Nov-16 23:00N 39°43' W 075°31'0 0.0
2017-Nov-16 22:30N 39°43' W 075°31'0 0.0
2017-Nov-16 22:00N 39°43' W 075°31'0 0.0
2017-Nov-16 21:30N 39°43' W 075°31'0 0.0
2017-Nov-16 21:00N 39°43' W 075°31'0 0.0
2017-Nov-16 20:30N 39°43' W 075°31'0 0.0
2017-Nov-16 20:00N 39°43' W 075°31'0 0.0
2017-Nov-16 19:30N 39°43' W 075°31'0 0.0
2017-Nov-16 19:00N 39°43' W 075°31'0 0.0
2017-Nov-16 18:30N 39°43' W 075°31'0 0.0
2017-Nov-16 18:00N 39°43' W 075°31'0 0.0
2017-Nov-16 17:30N 39°43' W 075°31'0 0.0
2017-Nov-16 17:00N 39°43' W 075°31'0 0.0
2017-Nov-16 16:30N 39°43' W 075°31'0 0.0
2017-Nov-16 16:00N 39°43' W 075°31'0 0.0
2017-Nov-16 15:30N 39°43' W 075°31'0 0.0
2017-Nov-16 15:00N 39°43' W 075°31'0 0.0
2017-Nov-16 14:30N 39°43' W 075°31'0 0.0
2017-Nov-16 14:00N 39°43' W 075°31'0 0.0
2017-Nov-16 13:30N 39°43' W 075°31'0 0.0
2017-Nov-16 13:00N 39°43' W 075°31'0 0.0
2017-Nov-16 12:30N 39°43' W 075°31'0 0.0
2017-Nov-16 12:00N 39°43' W 075°31'0 0.0
2017-Nov-16 11:30N 39°43' W 075°31'0 0.0
2017-Nov-16 11:00N 39°43' W 075°31'0 0.0
2017-Nov-16 10:30N 39°43' W 075°31'0 0.0
2017-Nov-16 10:00N 39°43' W 075°31'0 0.0
2017-Nov-16 09:30N 39°43' W 075°31'0 0.0
2017-Nov-16 09:00N 39°43' W 075°31'0 0.0
2017-Nov-16 08:30N 39°43' W 075°31'0 0.0
2017-Nov-16 08:00N 39°43' W 075°31'0 0.0
2017-Nov-16 07:30N 39°43' W 075°31'0 0.0
2017-Nov-16 07:00N 39°43' W 075°31'0 0.0
2017-Nov-16 06:30N 39°43' W 075°31'0 0.0
2017-Nov-16 06:00N 39°43' W 075°31'0 0.0
2017-Nov-16 05:30N 39°43' W 075°31'0 0.0
2017-Nov-16 05:00N 39°43' W 075°31'0 0.0
2017-Nov-16 04:30N 39°43' W 075°31'0 0.0
2017-Nov-16 04:00N 39°43' W 075°31'0 0.0
2017-Nov-16 03:30N 39°43' W 075°31'0 0.0
2017-Nov-16 03:00N 39°43' W 075°31'0 0.0
2017-Nov-16 02:30N 39°43' W 075°31'0 0.0
2017-Nov-16 02:00N 39°43' W 075°31'0 0.0
2017-Nov-16 01:30N 39°43' W 075°31'0 0.0
2017-Nov-16 01:00N 39°43' W 075°31'0 0.0
2017-Nov-16 00:30N 39°43' W 075°31'0 0.0
2017-Nov-16 00:00N 39°43' W 075°31'0 0.0
2017-Nov-15 23:30N 39°43' W 075°31'0 0.0
2017-Nov-15 23:00N 39°43' W 075°31'0 0.0
2017-Nov-15 22:30N 39°43' W 075°31'0 0.0
2017-Nov-15 22:00N 39°43' W 075°31'0 0.0
2017-Nov-15 21:30N 39°43' W 075°31'0 0.0
2017-Nov-15 21:00N 39°43' W 075°31'0 0.0
2017-Nov-15 20:30N 39°43' W 075°31'0 0.0
2017-Nov-15 20:00N 39°43' W 075°31'0 0.0
2017-Nov-15 19:30N 39°43' W 075°31'0 0.0
2017-Nov-15 19:00N 39°43' W 075°31'0 0.0
2017-Nov-15 18:30N 39°43' W 075°31'0 0.0
2017-Nov-15 18:00N 39°43' W 075°31'0 0.0
2017-Nov-15 17:30N 39°43' W 075°31'0 0.0
2017-Nov-15 16:57N 39°43' W 075°31'0 0.0
2017-Nov-15 16:30N 39°43' W 075°31'0 0.0
2017-Nov-15 16:00N 39°43' W 075°31'0 0.0
2017-Nov-15 15:30N 39°43' W 075°31'0 0.0
2017-Nov-15 15:00N 39°43' W 075°31'0 0.0
2017-Nov-15 14:30N 39°43' W 075°31'0 0.0
2017-Nov-15 14:00N 39°43' W 075°31'0 0.0
2017-Nov-15 13:30N 39°43' W 075°31'0 0.0
2017-Nov-15 13:00N 39°43' W 075°31'0 0.0
2017-Nov-15 12:30N 39°43' W 075°31'1 1.4
2017-Nov-15 12:00N 39°43' W 075°30'0 0.1
2017-Nov-15 11:30N 39°43' W 075°30'0 0.1
2017-Nov-15 11:00N 39°43' W 075°30'0 0.2
2017-Nov-15 10:30N 39°43' W 075°30'0 0.1
2017-Nov-15 10:00N 39°43' W 075°30'0 0.0
2017-Nov-15 09:30N 39°43' W 075°30'0 0.0
2017-Nov-15 09:00N 39°43' W 075°30'0 0.0
2017-Nov-15 08:30N 39°43' W 075°30'0 0.0
2017-Nov-15 08:00N 39°43' W 075°30'0 0.0
2017-Nov-15 07:30N 39°43' W 075°30'0 0.0
2017-Nov-15 07:00N 39°43' W 075°30'0 0.0
2017-Nov-15 06:30N 39°43' W 075°30'0 0.0
2017-Nov-15 06:00N 39°43' W 075°30'0 0.0
2017-Nov-15 05:30N 39°43' W 075°30'0 0.0
2017-Nov-15 05:00N 39°43' W 075°30'0 0.0
2017-Nov-15 04:30N 39°43' W 075°30'0 0.0
2017-Nov-15 04:00N 39°43' W 075°30'0 0.0
2017-Nov-15 03:30N 39°43' W 075°30'0 0.2
2017-Nov-15 03:00N 39°43' W 075°30'0 0.1
2017-Nov-15 02:30N 39°43' W 075°30'0 0.1
2017-Nov-15 02:00N 39°43' W 075°30'0 0.0
2017-Nov-15 01:30N 39°43' W 075°30'0 0.0
2017-Nov-15 01:00N 39°43' W 075°30'0 0.1
2017-Nov-15 00:30N 39°43' W 075°30'0 0.0
2017-Nov-15 00:00N 39°43' W 075°30'0 0.1
2017-Nov-14 23:30N 39°43' W 075°30'0 0.0
2017-Nov-14 23:00N 39°43' W 075°30'0 0.1
2017-Nov-14 22:30N 39°43' W 075°30'0 0.1
2017-Nov-14 22:00N 39°43' W 075°30'0 0.1
2017-Nov-14 21:30N 39°43' W 075°30'0 0.1
2017-Nov-14 21:00N 39°43' W 075°30'0 0.0
2017-Nov-14 20:30N 39°43' W 075°30'0 0.1
2017-Nov-14 20:00N 39°43' W 075°30'0 0.0
2017-Nov-14 19:30N 39°43' W 075°30'0 0.0
2017-Nov-14 19:00N 39°43' W 075°30'0 0.0
2017-Nov-14 18:30N 39°43' W 075°30'0 0.0
2017-Nov-14 18:00N 39°43' W 075°30'0 0.0
2017-Nov-14 17:30N 39°43' W 075°30'0 0.1
2017-Nov-14 17:00N 39°43' W 075°30'0 0.0
2017-Nov-14 16:30N 39°43' W 075°30'0 0.0
2017-Nov-14 16:00N 39°43' W 075°30'0 0.0
2017-Nov-14 15:30N 39°43' W 075°30'0 0.0
2017-Nov-14 15:00N 39°43' W 075°30'0 0.3
2017-Nov-14 14:30N 39°43' W 075°30'0 0.2
2017-Nov-14 14:00N 39°43' W 075°30'0 0.0
2017-Nov-14 13:27N 39°43' W 075°30'0 0.0
2017-Nov-14 13:00N 39°43' W 075°30'0 0.0
2017-Nov-14 12:30N 39°43' W 075°30'0 0.0
2017-Nov-14 12:00N 39°43' W 075°30'0 0.0
2017-Nov-14 11:30N 39°43' W 075°30'0 0.1
2017-Nov-14 11:00N 39°43' W 075°30'0 0.1
2017-Nov-14 10:30N 39°43' W 075°30'0 0.2
2017-Nov-14 10:00N 39°43' W 075°30'0 0.1
2017-Nov-14 09:30N 39°43' W 075°30'0 0.0
2017-Nov-14 09:00N 39°43' W 075°30'0 0.0
2017-Nov-14 08:30N 39°43' W 075°30'0 0.0
2017-Nov-14 08:00N 39°43' W 075°30'0 0.0
2017-Nov-14 07:30N 39°43' W 075°30'0 0.0
2017-Nov-14 07:00N 39°43' W 075°30'0 0.0
2017-Nov-14 06:30N 39°43' W 075°30'0 0.0
2017-Nov-14 06:00N 39°43' W 075°30'0 0.0
2017-Nov-14 05:30N 39°43' W 075°30'0 0.0
2017-Nov-14 05:00N 39°43' W 075°30'0 0.0
2017-Nov-14 04:30N 39°43' W 075°30'0 0.1
2017-Nov-14 04:00N 39°43' W 075°30'0 0.0
2017-Nov-14 03:30N 39°43' W 075°30'0 0.1
2017-Nov-14 03:00N 39°43' W 075°30'0 0.3
2017-Nov-14 02:30N 39°43' W 075°30'0 0.1
2017-Nov-14 02:00N 39°43' W 075°30'0 0.0
2017-Nov-14 01:30N 39°43' W 075°30'0 0.0
2017-Nov-14 01:00N 39°43' W 075°30'0 0.0
2017-Nov-14 00:30N 39°43' W 075°30'0 0.0
2017-Nov-14 00:00N 39°43' W 075°30'0 0.0
2017-Nov-13 23:30N 39°43' W 075°30'0 0.0
2017-Nov-13 23:00N 39°43' W 075°30'0 0.0
2017-Nov-13 22:30N 39°43' W 075°30'0 0.0
2017-Nov-13 22:00N 39°43' W 075°30'63 3.2
2017-Nov-13 02:00N 39°29' W 074°09'510.1
2017-Nov-13 01:30N 39°34' W 074°07'510.1
2017-Nov-13 01:00N 39°38' W 074°04'510.1
2017-Nov-13 00:30N 39°43' W 074°01'510.0
2017-Nov-13 00:00N 39°48' W 073°58'510.3
2017-Nov-12 23:30N 39°53' W 073°58'610.0
2017-Nov-12 22:57N 39°58' W 073°57'20 9.8
2017-Nov-12 20:55N 40°18' W 073°54'4 9.7
2017-Nov-12 20:28N 40°22' W 073°54'4 9.6
2017-Nov-12 20:00N 40°27' W 073°54'4 7.6
2017-Nov-12 19:30N 40°30' W 073°56'4 8.0
2017-Nov-12 19:00N 40°32' W 074°01'4 7.2
2017-Nov-12 18:30N 40°35' W 074°02'3 6.9
2017-Nov-12 18:00N 40°39' W 074°02'2 4.0
2017-Nov-12 17:30N 40°41' W 074°01'4 7.1
2017-Nov-12 17:00N 40°43' W 073°58'4 8.2
2017-Nov-12 16:31N 40°47' W 073°56'3 6.5
2017-Nov-12 16:00N 40°48' W 073°52'4 7.3
2017-Nov-12 15:30N 40°49' W 073°47'5 9.7
2017-Nov-12 15:00N 40°53' W 073°43'41 7.7
2017-Nov-12 09:43N 41°11' W 072°55'37 1.6
2017-Nov-11 10:25N 40°55' W 073°39'410.7
2017-Nov-11 10:00N 40°53' W 073°44'510.0
2017-Nov-11 09:30N 40°48' W 073°47'5 9.8
2017-Nov-11 09:00N 40°48' W 073°54'3 6.5
2017-Nov-11 08:30N 40°46' W 073°57'3 6.1
2017-Nov-11 08:00N 40°43' W 073°58'4 7.2
2017-Nov-11 07:30N 40°41' W 074°02'3 6.3
2017-Nov-11 07:00N 40°38' W 074°03'4 8.1
2017-Nov-11 06:30N 40°34' W 074°02'4 7.6
2017-Nov-11 05:59N 40°31' W 073°59'4 8.4
2017-Nov-11 05:29N 40°29' W 073°54'3 5.9
2017-Nov-11 04:59N 40°26' W 073°54'3 5.3
2017-Nov-11 04:29N 40°23' W 073°54'3 5.4
2017-Nov-11 04:00N 40°21' W 073°54'24 5.4
2017-Nov-10 23:33N 39°57' W 073°57'1 7.4
2017-Nov-10 23:26N 39°56' W 073°57'3 7.4
2017-Nov-10 23:00N 39°53' W 073°57'4 7.3
2017-Nov-10 22:29N 39°49' W 073°58'3 7.3
2017-Nov-10 22:00N 39°46' W 073°59'4 7.6
2017-Nov-10 21:30N 39°42' W 074°00'4 8.2
2017-Nov-10 21:00N 39°38' W 074°03'4 8.3
2017-Nov-10 20:30N 39°35' W 074°06'63 8.3
2017-Nov-10 12:56N 38°50' W 075°03'4 9.6
2017-Nov-10 12:30N 38°54' W 075°05'5 9.0
2017-Nov-10 12:00N 38°58' W 075°07'5 9.5
2017-Nov-10 11:30N 39°03' W 075°10'5 9.9
2017-Nov-10 11:00N 39°07' W 075°13'510.1
2017-Nov-10 10:30N 39°11' W 075°16'611.4
2017-Nov-10 10:00N 39°16' W 075°20'611.4
2017-Nov-10 09:30N 39°20' W 075°25'510.8
2017-Nov-10 09:00N 39°24' W 075°30'5 9.7
2017-Nov-10 08:30N 39°28' W 075°34'5 9.3
2017-Nov-10 08:01N 39°33' W 075°33'4 8.7
2017-Nov-10 07:30N 39°37' W 075°35'4 8.5
2017-Nov-10 07:01N 39°40' W 075°32'5 9.1
2017-Nov-10 06:31N 39°45' W 075°30'4 8.3
2017-Nov-10 06:00N 39°48' W 075°26'2 3.8
2017-Nov-10 05:31N 39°49' W 075°24'0 0.0
2017-Nov-10 05:00N 39°49' W 075°24'0 0.0
2017-Nov-10 04:31N 39°49' W 075°24'0 0.0
2017-Nov-10 03:59N 39°49' W 075°24'0 0.0
2017-Nov-10 03:29N 39°49' W 075°24'0 0.0
2017-Nov-10 02:59N 39°49' W 075°24'0 0.0
2017-Nov-10 02:29N 39°49' W 075°24'0 0.0
2017-Nov-10 01:59N 39°49' W 075°24'0 0.0
2017-Nov-10 01:29N 39°49' W 075°24'0 0.0
2017-Nov-10 00:59N 39°49' W 075°24'0 0.0
2017-Nov-10 00:29N 39°49' W 075°24'0 0.0
2017-Nov-09 23:59N 39°49' W 075°24'0 0.0
2017-Nov-09 23:29N 39°49' W 075°24'0 0.0
2017-Nov-09 22:59N 39°49' W 075°24'0 0.0
2017-Nov-09 22:29N 39°49' W 075°24'0 0.0
2017-Nov-09 21:59N 39°49' W 075°24'0 0.0
2017-Nov-09 21:29N 39°49' W 075°24'0 0.0
2017-Nov-09 20:59N 39°49' W 075°24'0 0.0
2017-Nov-09 20:29N 39°49' W 075°24'0 0.0
2017-Nov-09 19:59N 39°49' W 075°24'0 0.0
2017-Nov-09 19:29N 39°49' W 075°24'0 0.0
2017-Nov-09 18:59N 39°49' W 075°24'  

Dump ship's entire track history